Terminal Aerodrome Forecast
Issued by NWS

Home | Current Version | Previous Version | Text Only | Print | Product List | Glossary On
Versions: 1 2 3 4 5 6 7 8 9 10 11 12 13 14
000
FTUS46 KSEW 281100
TAFPAE
TAF
KPAE 281130Z 2812/2912 00000KT P6SM -SHRA SCT018 OVC030
      TEMPO 2812/2816 3SM SHRA BR SCT010 OVC018
     FM282000 36005KT P6SM VCSH BKN022 OVC035
     FM290800 02008KT P6SM SCT025 BKN060=

USA.gov is the U.S. government's official web portal to all federal, state and local government web resources and services.